Oxford, PA

11:11 AM EST on December 25, 2014 (GMT -0500)
Chester County Carlson | Change Station
CLOSE
Current Station
Airport
Location: Coatesville,
Elevation: 659 ft
Nearby Weather Stations

Elev 659 ft 39.98 °N, 75.87 °W | Updated 16 minutes ago

Partly Cloudy
Partly Cloudy
48 °F
Feels Like 48 °F
N
18
Wind Variable Wind from WNW
Gusts 28 mph

Today
High -- | Low -- °F
--% Chance of Precip.
Yesterday
High -- | Low -- °F
Precip. -- in
7:23 AM 4:44 PM
Waxing Crescent, 17% visible
Pressure 29.86 in
Visibility 10.0 miles
Clouds Scattered Clouds 5000 ft
Dew Point 36 °F
Humidity 62%
Rainfall 0.07 in
Snow Depth Not available.
UV 2 out of 12
Pollen .10 out of 12
Air Quality Not available.
Flu Activity Not available.
METAR KMQS 251555Z AUTO 29016G24KT 10SM SCT050 09/02 A2986 RMK AO2

More Conditions Fewer Conditions

Pressure 29.86 in
Visibility 10.0 miles
Clouds Scattered Clouds 5000 ft
Dew Point 36 °F
Humidity 62%
Rainfall 0.07 in
Snow Depth Not available.
UV 2 out of 12
Pollen .10 out of 12
Air Quality Not available.
Flu Activity Not available.
METAR KMQS 251555Z AUTO 29016G24KT 10SM SCT050 09/02 A2986 RMK AO2

More Conditions Fewer Conditions

10-Day Weather Forecast

Almanac

Astronomy

Dec. 25, 2014 Rise Set
Actual Time
Civil Twilight
Nautical Twilight
Astronomical Twilight
Moon
Length of Visible Light
Length of Day
Tomorrow will be .
, % of the Moon is Illuminated

Today's Extremes

State Highs State Lows

Community

WunderPhotos

Upload Photos

1,780,321 photos uploaded!

WunderBlogs® & News

Nearby

Air Quality

  Air Quality AQ Index Pollutant
Not available.

Snow Depth

Station Depth Elevation

Earthquake Activity

City Distance Mag. Time & Date
Minimum magnitude displayed is 2.5.

Coastal Water Temperatures

Place Temperature

Nearby Weather Stations